バロー の空港の天気 - METARとTAF

Barrow, Wiley Post-Will Rogers Memorial Airport ( PABR / BRW ) - アメリカ アラスカ州バロー
飛行場実況気象(Metar)
観測時間01/22 19:53 AKST (01/23 04:53 UTC)
風向・風速静穏 0m/s
視程10km以上
天気現象
なし
気温-28.9℃
湿度77%
気圧1027.1hPa
METARPABR 230453Z 00000KT 10SM CLR M29/M32 A3032 RMK AO2 SLP271 T12891317
過去の天気等 Google飛行場航空写真 Wunderground天気予報

過去48時間のMETAR

飛行場予報(TAF)
発表時間: 1/22 20:34 AKST (1/23 05:34 UTC)
予報対象時間: 22日21時 AKST ~ 23日21時 AKST
風向・風速静穏
視程10km以上
なし
23日1時 AKST から
風向・風速北北西 2m/s
視程8,050m
天気現象弱い雪 もや
全天の4割程度の雲 雲底高度 460m
全天を覆う雲 雲底高度 1,070m
23日16時 AKST から
風向・風速西北西 3m/s
視程10km以上
全天の8割程度の雲 雲底高度 3,050m
PABR 230534Z 2306/2406 00000KT P6SM SKC
FM231000 34004KT 5SM -SN BR SCT015 OVC035
FM240100 30005KT P6SM BKN100